createdAt,value
2023-03-07T00:02:26.584Z,3.67
2023-03-07T00:04:53.399Z,3.69
2023-03-07T00:07:20.096Z,3.69
2023-03-07T00:09:48.160Z,3.62
2023-03-07T00:12:14.876Z,3.74
2023-03-07T00:14:41.702Z,3.65
2023-03-07T00:17:08.415Z,3.68
2023-03-07T00:19:35.088Z,3.71
2023-03-07T00:22:03.051Z,3.68
2023-03-07T00:24:29.743Z,3.63
2023-03-07T00:26:56.435Z,3.72
2023-03-07T00:29:23.206Z,3.66
2023-03-07T00:31:49.982Z,3.71
2023-03-07T00:34:16.704Z,3.59
2023-03-07T00:36:43.447Z,3.65
2023-03-07T00:39:10.133Z,3.73
2023-03-07T00:41:37.175Z,3.70
2023-03-07T00:44:04.179Z,3.63
2023-03-07T00:46:30.962Z,3.69
2023-03-07T00:48:58.278Z,3.64
2023-03-07T00:51:25.145Z,3.70
2023-03-07T00:53:52.267Z,3.57
2023-03-07T00:56:23.122Z,3.73
2023-03-07T00:58:50.588Z,3.64
2023-03-07T01:01:23.530Z,3.69
2023-03-07T01:03:53.553Z,3.67
2023-03-07T01:06:23.369Z,3.72
2023-03-07T01:08:52.980Z,3.59
2023-03-07T01:11:20.153Z,3.64
2023-03-07T01:13:49.548Z,3.71
2023-03-07T01:16:19.835Z,3.71
2023-03-07T01:18:51.334Z,3.68
2023-03-07T01:21:26.403Z,3.75
2023-03-07T01:23:53.687Z,3.76
2023-03-07T01:26:23.796Z,3.75
2023-03-07T01:28:52.119Z,3.71
2023-03-07T01:31:19.076Z,3.65
2023-03-07T01:33:48.098Z,3.67
2023-03-07T01:36:30.195Z,3.72
2023-03-07T01:39:23.257Z,3.76
2023-03-07T01:41:59.546Z,3.73
2023-03-07T01:44:28.631Z,3.81
2023-03-07T01:47:00.561Z,3.84
2023-03-07T01:49:39.135Z,3.78
2023-03-07T01:52:25.817Z,3.77
2023-03-07T01:55:00.419Z,3.67
2023-03-07T01:57:33.310Z,3.79
2023-03-07T02:00:08.318Z,3.82
2023-03-07T02:02:42.585Z,3.70
2023-03-07T02:05:16.016Z,3.77
2023-03-07T02:07:48.082Z,3.78
2023-03-07T02:10:19.392Z,3.68
2023-03-07T02:12:46.274Z,3.66
2023-03-07T02:15:14.068Z,3.67
2023-03-07T02:17:43.084Z,3.67
2023-03-07T02:20:14.565Z,3.66
2023-03-07T02:22:42.165Z,3.64
2023-03-07T02:25:19.976Z,3.59
2023-03-07T02:27:49.639Z,3.45
2023-03-07T02:30:17.151Z,3.45
2023-03-07T02:32:45.265Z,3.44
2023-03-07T02:35:18.976Z,2.92
2023-03-07T02:37:52.291Z,3.42
2023-03-07T02:40:20.965Z,3.48
2023-03-07T02:42:48.979Z,3.42
2023-03-07T02:45:17.642Z,3.50
2023-03-07T02:47:45.546Z,3.46
2023-03-07T02:50:15.855Z,3.53
2023-03-07T02:52:45.342Z,3.54
2023-03-07T02:55:12.891Z,3.54
2023-03-07T02:57:46.135Z,3.47
2023-03-07T03:00:13.315Z,3.45
2023-03-07T03:02:40.295Z,3.53
2023-03-07T03:05:07.685Z,3.60
2023-03-07T03:07:34.377Z,3.60
2023-03-07T03:10:02.700Z,3.28
2023-03-07T03:12:31.948Z,3.62
2023-03-07T03:14:59.275Z,3.43
2023-03-07T03:17:26.214Z,3.60
2023-03-07T03:19:52.987Z,3.39
2023-03-07T03:22:20.681Z,3.61
2023-03-07T03:24:49.529Z,3.53
2023-03-07T03:27:17.705Z,3.59
2023-03-07T03:29:47.158Z,3.55
2023-03-07T03:32:15.042Z,3.52
2023-03-07T03:34:43.790Z,3.55
2023-03-07T03:37:10.663Z,3.57
2023-03-07T03:39:37.785Z,3.54
2023-03-07T03:42:06.389Z,3.60
2023-03-07T03:44:33.824Z,3.56
2023-03-07T03:47:01.255Z,3.53
2023-03-07T03:49:28.193Z,3.50
2023-03-07T03:51:55.704Z,3.47
2023-03-07T03:54:22.554Z,3.50
2023-03-07T03:56:49.307Z,3.40
2023-03-07T03:59:16.034Z,3.40
2023-03-07T04:01:42.908Z,3.42
2023-03-07T04:04:09.775Z,3.31
2023-03-07T04:06:37.734Z,3.33
2023-03-07T04:09:05.600Z,3.27
2023-03-07T04:11:33.259Z,3.22
2023-03-07T04:14:00.135Z,3.17
2023-03-07T04:16:27.415Z,3.13
2023-03-07T04:18:54.511Z,3.18
2023-03-07T04:21:22.507Z,3.06
2023-03-07T04:23:55.517Z,3.07
2023-03-07T04:26:24.335Z,2.99
2023-03-07T04:28:51.135Z,3.00
2023-03-07T04:31:27.722Z,2.93
2023-03-07T04:33:56.401Z,2.86
2023-03-07T04:36:24.518Z,2.85
2023-03-07T04:38:52.008Z,2.78
2023-03-07T04:41:23.584Z,2.90
2023-03-07T04:43:55.176Z,2.89
2023-03-07T04:46:23.769Z,2.82
2023-03-07T04:48:50.551Z,2.86
2023-03-07T04:51:17.831Z,2.81
2023-03-07T04:53:44.650Z,2.94
2023-03-07T04:56:11.478Z,2.89
2023-03-07T04:58:40.090Z,2.98
2023-03-07T05:01:07.069Z,2.97
2023-03-07T05:03:35.968Z,2.97
2023-03-07T05:06:05.708Z,2.99
2023-03-07T05:08:33.675Z,3.00
2023-03-07T05:11:01.048Z,2.93
2023-03-07T05:13:28.545Z,2.98
2023-03-07T05:15:57.366Z,3.05
2023-03-07T05:18:25.622Z,3.10
2023-03-07T05:20:53.379Z,3.06
2023-03-07T05:23:20.951Z,3.09
2023-03-07T05:25:50.071Z,3.11
2023-03-07T05:28:17.517Z,3.13
2023-03-07T05:30:45.545Z,3.12
2023-03-07T05:33:12.424Z,3.10
2023-03-07T05:35:40.414Z,3.18
2023-03-07T05:38:08.403Z,3.24
2023-03-07T05:40:36.285Z,3.17
2023-03-07T05:43:04.056Z,3.26
2023-03-07T05:45:31.553Z,3.22
2023-03-07T05:47:59.908Z,3.19
2023-03-07T05:50:26.815Z,3.23
2023-03-07T05:52:53.844Z,3.20
2023-03-07T05:55:21.212Z,3.33
2023-03-07T05:57:48.524Z,3.35
2023-03-07T06:00:16.206Z,3.29
2023-03-07T06:02:48.521Z,3.33
2023-03-07T06:05:16.190Z,3.42
2023-03-07T06:07:44.090Z,3.38
2023-03-07T06:10:13.873Z,3.32
2023-03-07T06:12:41.002Z,3.45
2023-03-07T06:15:09.041Z,3.51
2023-03-07T06:17:36.479Z,3.49
2023-03-07T06:20:04.271Z,3.48
2023-03-07T06:22:32.240Z,3.62
2023-03-07T06:25:01.041Z,3.61
2023-03-07T06:27:28.003Z,3.72
2023-03-07T06:29:55.087Z,3.70
2023-03-07T06:32:22.064Z,3.83
2023-03-07T06:34:48.771Z,3.79
2023-03-07T06:37:15.657Z,3.95
2023-03-07T06:39:42.670Z,3.97
2023-03-07T06:42:09.545Z,4.05
2023-03-07T06:44:36.330Z,4.12
2023-03-07T06:47:03.881Z,4.17
2023-03-07T06:49:30.871Z,4.14
2023-03-07T06:51:57.728Z,4.33
2023-03-07T06:54:24.635Z,4.37
2023-03-07T06:56:51.771Z,4.39
2023-03-07T06:59:21.818Z,4.42
2023-03-07T07:01:49.076Z,4.53
2023-03-07T07:04:18.031Z,4.49
2023-03-07T07:06:45.117Z,4.58
2023-03-07T07:09:14.329Z,4.61
2023-03-07T07:11:41.380Z,4.69
2023-03-07T07:14:11.850Z,4.57
2023-03-07T07:16:39.599Z,4.69
2023-03-07T07:19:07.238Z,4.77
2023-03-07T07:21:35.548Z,4.75
2023-03-07T07:24:02.374Z,4.70
2023-03-07T07:26:29.527Z,4.82
2023-03-07T07:28:58.170Z,4.82
2023-03-07T07:31:25.087Z,4.88
2023-03-07T07:33:51.885Z,4.87
2023-03-07T07:36:19.711Z,4.81
2023-03-07T07:38:47.508Z,4.86
2023-03-07T07:41:14.374Z,4.86
2023-03-07T07:43:41.860Z,4.99
2023-03-07T07:46:19.174Z,4.94
2023-03-07T07:48:49.341Z,4.94
2023-03-07T07:51:16.859Z,4.86
2023-03-07T07:53:43.796Z,4.82
2023-03-07T07:56:10.808Z,4.95
2023-03-07T07:58:37.552Z,5.00
2023-03-07T08:01:21.860Z,5.04
2023-03-07T08:03:48.953Z,5.15
2023-03-07T08:06:24.292Z,5.23
2023-03-07T08:08:51.194Z,5.23
2023-03-07T08:11:19.486Z,5.31
2023-03-07T08:13:46.354Z,5.27
2023-03-07T08:16:17.776Z,5.47
2023-03-07T08:18:50.200Z,5.54
2023-03-07T08:21:17.078Z,5.54
2023-03-07T08:23:43.803Z,5.61
2023-03-07T08:26:11.258Z,5.74
2023-03-07T08:28:38.344Z,5.86
2023-03-07T08:31:14.042Z,5.74
2023-03-07T08:33:41.212Z,5.88
2023-03-07T08:36:08.381Z,5.94
2023-03-07T08:38:35.426Z,5.98
2023-03-07T08:41:04.324Z,6.00
2023-03-07T08:43:32.659Z,6.13
2023-03-07T08:46:00.410Z,6.21
2023-03-07T08:48:27.983Z,6.30
2023-03-07T08:50:55.622Z,6.43
2023-03-07T08:53:22.887Z,6.53
2023-03-07T08:55:50.062Z,6.61
2023-03-07T08:58:16.780Z,6.63
2023-03-07T09:00:43.609Z,6.71
2023-03-07T09:03:10.596Z,6.78
2023-03-07T09:05:39.066Z,6.86
2023-03-07T09:08:07.281Z,6.98
2023-03-07T09:10:35.464Z,6.98
2023-03-07T09:13:02.284Z,6.64
2023-03-07T09:15:29.252Z,6.97
2023-03-07T09:17:55.988Z,6.83
2023-03-07T09:20:23.090Z,6.97
2023-03-07T09:22:51.749Z,7.05
2023-03-07T09:25:18.835Z,7.21
2023-03-07T09:27:45.848Z,7.09
2023-03-07T09:30:14.061Z,7.34
2023-03-07T09:32:41.011Z,7.26
2023-03-07T09:35:08.486Z,7.55
2023-03-07T09:37:35.191Z,7.47
2023-03-07T09:40:05.723Z,7.70
2023-03-07T09:42:54.907Z,7.65
2023-03-07T09:45:28.056Z,7.92
2023-03-07T09:48:30.931Z,7.97
2023-03-07T09:51:05.373Z,7.97
2023-03-07T09:53:45.139Z,8.00
2023-03-07T09:56:21.515Z,8.06
2023-03-07T09:58:55.288Z,7.98
2023-03-07T10:01:25.931Z,8.06
2023-03-07T10:04:13.179Z,8.05
2023-03-07T10:06:42.617Z,8.06
2023-03-07T10:09:22.062Z,8.05
2023-03-07T10:12:05.273Z,7.97
2023-03-07T10:14:54.532Z,7.99
2023-03-07T10:17:50.392Z,7.98
2023-03-07T10:20:35.630Z,7.97
2023-03-07T10:23:33.556Z,8.12
2023-03-07T10:26:00.290Z,8.24
2023-03-07T10:28:31.501Z,8.32
2023-03-07T10:31:22.801Z,8.62
2023-03-07T10:33:54.590Z,8.75
2023-03-07T10:36:38.544Z,8.88
2023-03-07T10:39:11.349Z,9.11
2023-03-07T10:41:38.078Z,9.14
2023-03-07T10:44:04.900Z,9.35
2023-03-07T10:46:33.176Z,9.41
2023-03-07T10:49:20.269Z,9.63
2023-03-07T10:52:02.498Z,9.47
2023-03-07T10:54:37.666Z,9.51
2023-03-07T10:57:16.426Z,9.63
2023-03-07T10:59:45.323Z,9.80
2023-03-07T11:02:31.242Z,9.83
2023-03-07T11:04:59.111Z,9.73
2023-03-07T11:07:36.372Z,9.97
2023-03-07T11:10:34.396Z,9.99
2023-03-07T11:13:17.827Z,10.03
2023-03-07T11:15:47.904Z,9.79
2023-03-07T11:18:37.057Z,9.76
2023-03-07T11:21:03.847Z,10.09
2023-03-07T11:23:32.195Z,9.90
2023-03-07T11:26:23.021Z,10.01
2023-03-07T11:29:06.085Z,10.06
2023-03-07T11:31:36.585Z,9.88
2023-03-07T11:34:16.139Z,10.05
2023-03-07T11:36:49.534Z,10.02
2023-03-07T11:39:43.870Z,9.85
2023-03-07T11:42:23.906Z,9.72
2023-03-07T11:44:57.661Z,9.54
2023-03-07T11:47:27.138Z,9.74
2023-03-07T11:49:56.725Z,9.61
2023-03-07T11:52:40.212Z,9.46
2023-03-07T11:55:25.415Z,9.54
2023-03-07T11:58:28.000Z,9.33
2023-03-07T12:01:04.331Z,9.60
2023-03-07T12:04:01.622Z,9.64
2023-03-07T12:06:35.698Z,9.55
2023-03-07T12:09:11.461Z,9.63
2023-03-07T12:11:56.677Z,9.66
2023-03-07T12:14:38.346Z,9.47
2023-03-07T12:17:20.320Z,9.64
2023-03-07T12:20:28.195Z,9.65
2023-03-07T12:23:00.058Z,9.51
2023-03-07T12:25:41.929Z,9.23
2023-03-07T12:28:21.375Z,9.43
2023-03-07T12:31:12.919Z,9.50
2023-03-07T12:34:10.802Z,9.44
2023-03-07T12:36:55.700Z,9.36
2023-03-07T12:39:31.268Z,9.23
2023-03-07T12:42:14.794Z,9.18
2023-03-07T12:44:53.789Z,9.20
2023-03-07T12:47:38.955Z,9.02
2023-03-07T12:50:22.619Z,9.10
2023-03-07T12:53:00.340Z,8.86
2023-03-07T12:55:34.780Z,8.90
2023-03-07T12:58:35.172Z,8.93
2023-03-07T13:01:07.367Z,8.89
2023-03-07T13:03:52.402Z,8.79
2023-03-07T13:06:21.632Z,8.62
2023-03-07T13:08:51.703Z,8.46
2023-03-07T13:11:24.160Z,8.36
2023-03-07T13:13:58.604Z,8.27
2023-03-07T13:16:36.275Z,8.19
2023-03-07T13:19:31.138Z,8.19
2023-03-07T13:21:58.669Z,7.75
2023-03-07T13:24:33.385Z,8.12
2023-03-07T13:27:00.273Z,8.12
2023-03-07T13:32:51.708Z,8.37
2023-03-07T13:35:24.467Z,8.46
2023-03-07T13:38:28.899Z,8.50
2023-03-07T13:40:56.815Z,8.57
2023-03-07T13:43:24.987Z,8.59
2023-03-07T13:46:15.047Z,8.54
2023-03-07T13:48:41.766Z,8.67
2023-03-07T13:51:09.397Z,8.70
2023-03-07T13:53:46.260Z,8.77
2023-03-07T13:56:16.016Z,8.72
2023-03-07T13:59:15.910Z,8.71
2023-03-07T14:01:53.221Z,8.69
2023-03-07T14:04:38.409Z,8.51
2023-03-07T14:07:24.686Z,8.32
2023-03-07T14:10:00.331Z,8.21
2023-03-07T14:13:05.448Z,8.17
2023-03-07T14:15:49.225Z,8.01
2023-03-07T14:18:33.995Z,7.95
2023-03-07T14:21:14.850Z,7.87
2023-03-07T14:23:53.570Z,7.94
2023-03-07T14:26:22.073Z,7.73
2023-03-07T14:28:58.888Z,7.75
2023-03-07T14:31:38.978Z,7.72
2023-03-07T14:34:24.392Z,7.75
2023-03-07T14:37:05.580Z,7.60
2023-03-07T14:39:53.550Z,7.56
2023-03-07T14:42:26.052Z,7.52
2023-03-07T14:45:10.766Z,7.45
2023-03-07T14:48:06.543Z,7.17
2023-03-07T14:50:34.068Z,7.23
2023-03-07T14:53:12.076Z,7.17
2023-03-07T14:55:41.768Z,7.41
2023-03-07T14:58:18.850Z,7.19
2023-03-07T15:00:45.644Z,7.28
2023-03-07T15:03:14.466Z,7.35
2023-03-07T15:05:51.097Z,7.44
2023-03-07T15:08:35.487Z,7.19
2023-03-07T15:11:17.398Z,7.53
2023-03-07T15:13:46.850Z,7.55
2023-03-07T15:16:21.008Z,7.53
2023-03-07T15:18:53.561Z,7.57
2023-03-07T15:21:23.349Z,7.58
2023-03-07T15:23:55.251Z,7.51
2023-03-07T15:26:24.824Z,7.50
2023-03-07T15:29:07.834Z,7.48
2023-03-07T15:31:53.970Z,7.47
2023-03-07T15:34:26.259Z,7.52
2023-03-07T15:36:53.491Z,7.59
2023-03-07T15:39:40.406Z,7.77
2023-03-07T15:42:08.583Z,7.83
2023-03-07T15:44:36.546Z,7.86
2023-03-07T15:47:14.637Z,7.94
2023-03-07T15:49:41.262Z,7.83
2023-03-07T15:52:36.909Z,7.72
2023-03-07T15:55:18.072Z,7.65
2023-03-07T15:58:00.352Z,7.50
2023-03-07T16:00:37.751Z,7.54
2023-03-07T16:03:23.104Z,7.42
2023-03-07T16:05:50.033Z,7.28
2023-03-07T16:08:19.298Z,7.26
2023-03-07T16:10:57.631Z,6.97
2023-03-07T16:13:31.543Z,6.90
2023-03-07T16:16:22.891Z,6.87
2023-03-07T16:18:51.285Z,6.89
2023-03-07T16:21:20.018Z,6.73
2023-03-07T16:23:47.282Z,6.67
2023-03-07T16:26:18.139Z,6.72
2023-03-07T16:28:45.104Z,6.60
2023-03-07T16:31:13.420Z,6.57
2023-03-07T16:33:40.143Z,6.51
2023-03-07T16:36:07.265Z,6.42
2023-03-07T16:38:34.084Z,6.45
2023-03-07T16:41:02.086Z,6.42
2023-03-07T16:43:38.577Z,6.36
2023-03-07T16:46:17.554Z,6.17
2023-03-07T16:48:45.594Z,6.12
2023-03-07T16:51:21.150Z,6.00
2023-03-07T16:53:49.295Z,5.94
2023-03-07T16:56:22.383Z,5.74
2023-03-07T16:58:49.220Z,5.72
2023-03-07T17:01:16.180Z,5.67
2023-03-07T17:03:43.078Z,5.62
2023-03-07T17:06:14.850Z,5.51
2023-03-07T17:08:41.886Z,5.45
2023-03-07T17:11:35.495Z,5.36
2023-03-07T17:14:10.865Z,5.23
2023-03-07T17:16:44.688Z,5.28
2023-03-07T17:19:26.025Z,5.19
2023-03-07T17:21:52.781Z,5.15
2023-03-07T17:24:19.612Z,4.96
2023-03-07T17:26:48.253Z,5.09
2023-03-07T17:29:37.818Z,4.99
2023-03-07T17:32:04.795Z,4.99
2023-03-07T17:34:33.898Z,5.00
2023-03-07T17:37:01.197Z,4.97
2023-03-07T17:39:32.175Z,4.85
2023-03-07T17:41:59.156Z,4.90
2023-03-07T17:44:26.436Z,4.88
2023-03-07T17:46:53.652Z,4.85
2023-03-07T17:49:21.806Z,4.72
2023-03-07T17:51:48.988Z,4.75
2023-03-07T17:54:16.624Z,4.73
2023-03-07T17:56:43.408Z,4.58
2023-03-07T17:59:10.184Z,4.75
2023-03-07T18:01:37.239Z,4.67
2023-03-07T18:04:06.924Z,4.73
2023-03-07T18:06:35.131Z,4.81
2023-03-07T18:09:06.848Z,4.85
2023-03-07T18:11:34.733Z,4.93
2023-03-07T18:14:02.039Z,4.91
2023-03-07T18:16:28.810Z,5.01
2023-03-07T18:19:00.038Z,5.02
2023-03-07T18:21:29.982Z,5.02
2023-03-07T18:23:58.070Z,5.07
2023-03-07T18:26:24.960Z,5.03
2023-03-07T18:28:56.313Z,5.02
2023-03-07T18:31:25.385Z,5.16
2023-03-07T18:33:53.192Z,5.14
2023-03-07T18:36:22.445Z,5.12
2023-03-07T18:38:49.978Z,5.22
2023-03-07T18:41:19.530Z,5.17
2023-03-07T18:43:46.727Z,5.19
2023-03-07T18:46:16.304Z,5.25
2023-03-07T18:48:43.450Z,5.26
2023-03-07T18:51:12.849Z,5.27
2023-03-07T18:53:40.311Z,5.19
2023-03-07T18:56:15.209Z,5.18
2023-03-07T18:58:43.451Z,5.26
2023-03-07T19:01:18.767Z,5.27
2023-03-07T19:03:46.919Z,5.26
2023-03-07T19:06:15.197Z,5.25
2023-03-07T19:08:42.388Z,5.20
2023-03-07T19:11:11.825Z,5.30
2023-03-07T19:13:38.922Z,5.29
2023-03-07T19:16:08.550Z,5.27
2023-03-07T19:18:36.461Z,5.24
2023-03-07T19:21:10.748Z,5.11
2023-03-07T19:23:38.389Z,5.10
2023-03-07T19:26:07.728Z,5.13
2023-03-07T19:28:34.874Z,5.11
2023-03-07T19:31:18.960Z,5.07
2023-03-07T19:33:47.223Z,5.06
2023-03-07T19:36:16.650Z,4.97
2023-03-07T19:38:43.853Z,4.97
2023-03-07T19:41:15.127Z,4.99
2023-03-07T19:43:42.017Z,4.86
2023-03-07T19:46:10.780Z,4.91
2023-03-07T19:48:40.440Z,4.84
2023-03-07T19:51:20.019Z,4.89
2023-03-07T19:53:47.714Z,4.85
2023-03-07T19:56:18.296Z,4.81
2023-03-07T19:58:45.010Z,4.75
2023-03-07T20:01:14.350Z,4.89
2023-03-07T20:03:41.229Z,4.88
2023-03-07T20:06:09.199Z,4.88
2023-03-07T20:08:35.991Z,4.89
2023-03-07T20:11:09.722Z,4.94
2023-03-07T20:13:37.166Z,4.96
2023-03-07T20:16:04.306Z,4.89
2023-03-07T20:18:31.038Z,4.97
2023-03-07T20:21:02.812Z,4.91
2023-03-07T20:23:29.612Z,4.81
2023-03-07T20:26:09.031Z,4.90
2023-03-07T20:28:36.625Z,4.88
2023-03-07T20:31:11.352Z,4.78
2023-03-07T20:33:40.273Z,4.77
2023-03-07T20:36:09.768Z,4.76
2023-03-07T20:38:37.583Z,4.75
2023-03-07T20:41:07.038Z,4.71
2023-03-07T20:43:34.974Z,4.71
2023-03-07T20:46:12.791Z,4.69
2023-03-07T20:48:40.720Z,4.69
2023-03-07T20:51:11.418Z,4.52
2023-03-07T20:53:38.136Z,4.72
2023-03-07T20:56:06.042Z,4.63
2023-03-07T20:58:33.599Z,4.66
2023-03-07T21:01:01.312Z,4.78
2023-03-07T21:03:30.026Z,4.67
2023-03-07T21:05:59.159Z,4.74
2023-03-07T21:08:26.761Z,4.66
2023-03-07T21:11:00.619Z,4.69
2023-03-07T21:13:28.538Z,4.63
2023-03-07T21:16:03.973Z,4.54
2023-03-07T21:18:30.915Z,4.60
2023-03-07T21:21:06.008Z,4.56
2023-03-07T21:23:32.895Z,4.58
2023-03-07T21:26:05.205Z,4.64
2023-03-07T21:28:33.432Z,4.61
2023-03-07T21:31:08.560Z,4.62
2023-03-07T21:33:35.763Z,4.66
2023-03-07T21:36:03.532Z,4.72
2023-03-07T21:38:30.942Z,4.75
2023-03-07T21:40:58.114Z,4.84
2023-03-07T21:43:25.058Z,4.85
2023-03-07T21:45:51.872Z,4.81
2023-03-07T21:48:21.593Z,4.86
2023-03-07T21:50:51.896Z,4.87
2023-03-07T21:53:19.391Z,4.78
2023-03-07T21:55:58.076Z,4.81
2023-03-07T21:58:24.876Z,4.78
2023-03-07T22:00:52.277Z,4.76
2023-03-07T22:03:19.453Z,4.78
2023-03-07T22:05:46.309Z,4.66
2023-03-07T22:08:13.676Z,4.82
2023-03-07T22:10:40.482Z,4.75
2023-03-07T22:13:07.416Z,4.81
2023-03-07T22:15:34.130Z,4.78
2023-03-07T22:18:00.954Z,4.70
2023-03-07T22:20:27.761Z,4.78
2023-03-07T22:22:54.479Z,4.92
2023-03-07T22:25:21.270Z,4.84
2023-03-07T22:27:47.943Z,4.88
2023-03-07T22:30:14.900Z,4.98
2023-03-07T22:32:44.906Z,4.85
2023-03-07T22:35:11.750Z,4.93
2023-03-07T22:37:38.502Z,4.93
2023-03-07T22:40:06.184Z,5.03
2023-03-07T22:42:33.543Z,4.98
2023-03-07T22:45:00.310Z,4.98
2023-03-07T22:47:29.450Z,4.97
2023-03-07T22:49:56.189Z,4.99
2023-03-07T22:52:23.012Z,4.96
2023-03-07T22:54:49.684Z,4.97
2023-03-07T22:57:16.791Z,5.03
2023-03-07T22:59:43.623Z,5.03
2023-03-07T23:02:10.404Z,4.95
2023-03-07T23:04:37.357Z,4.97
2023-03-07T23:07:04.219Z,5.04
2023-03-07T23:09:30.998Z,5.05
2023-03-07T23:11:57.745Z,5.02
2023-03-07T23:14:24.490Z,4.98
2023-03-07T23:16:51.246Z,5.07
2023-03-07T23:19:17.996Z,5.01
2023-03-07T23:21:44.684Z,5.03
2023-03-07T23:24:11.781Z,5.10
2023-03-07T23:26:39.049Z,5.03
2023-03-07T23:29:07.309Z,4.91
2023-03-07T23:31:38.972Z,4.98
2023-03-07T23:34:15.114Z,4.97
2023-03-07T23:36:41.980Z,4.99
2023-03-07T23:39:08.804Z,4.96
2023-03-07T23:41:35.569Z,5.00
2023-03-07T23:44:03.188Z,5.02
2023-03-07T23:46:30.381Z,5.01
2023-03-07T23:48:57.661Z,5.02
2023-03-07T23:51:25.415Z,4.89
2023-03-07T23:53:52.178Z,4.92
2023-03-07T23:56:18.909Z,5.01
2023-03-07T23:58:49.281Z,4.99
